createdAt,value
2018-03-29T00:00:44.805Z,26.5
2018-03-29T00:01:36.982Z,26.6
2018-03-29T00:02:27.527Z,26.6
2018-03-29T00:03:17.168Z,26.7
2018-03-29T00:04:06.881Z,26.8
2018-03-29T00:04:56.111Z,26.9
2018-03-29T00:05:45.254Z,26.9
2018-03-29T00:06:36.824Z,27
2018-03-29T00:07:26.992Z,27.1
2018-03-29T00:08:16.569Z,27.1
2018-03-29T00:09:06.993Z,27.3
2018-03-29T00:09:56.984Z,27.3
2018-03-29T00:10:47.914Z,27.4
2018-03-29T00:11:36.895Z,27.4
2018-03-29T00:12:27.259Z,27.4
2018-03-29T00:13:17.609Z,27.6
2018-03-29T00:14:08.060Z,27.6
2018-03-29T00:14:57.894Z,27.7
2018-03-29T00:15:48.088Z,27.7
2018-03-29T00:16:37.219Z,27.8
2018-03-29T00:17:27.656Z,27.8
2018-03-29T00:18:16.859Z,27.8
2018-03-29T00:19:07.249Z,27.8
2018-03-29T00:19:57.994Z,27.8
2018-03-29T00:20:48.134Z,27.8
2018-03-29T00:21:37.504Z,27.7
2018-03-29T00:22:28.345Z,27.6
2018-03-29T00:23:17.541Z,27.6
2018-03-29T00:24:07.706Z,27.6
2018-03-29T00:24:57.986Z,27.5
2018-03-29T00:25:48.475Z,27.4
2018-03-29T00:26:38.491Z,27.3
2018-03-29T00:27:27.733Z,27.2
2018-03-29T00:28:17.496Z,27.1
2018-03-29T00:29:07.825Z,26.9
2018-03-29T00:29:57.893Z,26.9
2018-03-29T00:30:48.503Z,26.8
2018-03-29T00:31:38.182Z,26.7
2018-03-29T00:32:28.350Z,26.6
2018-03-29T00:33:19.650Z,26.6
2018-03-29T00:34:09.460Z,26.5
2018-03-29T00:35:00.058Z,26.4
2018-03-29T00:35:49.245Z,26.4
2018-03-29T00:36:39.641Z,26.3
2018-03-29T00:37:29.670Z,26.3
2018-03-29T00:38:19.713Z,26.4
2018-03-29T00:39:10.033Z,26.4
2018-03-29T00:39:59.835Z,26.5
2018-03-29T00:40:50.187Z,26.6
2018-03-29T00:41:40.470Z,26.6
2018-03-29T00:42:30.572Z,26.7
2018-03-29T00:43:20.597Z,26.8
2018-03-29T00:44:10.387Z,26.8
2018-03-29T00:45:00.485Z,26.9
2018-03-29T00:45:50.270Z,26.9
2018-03-29T00:46:39.713Z,27.1
2018-03-29T00:47:30.366Z,27.1
2018-03-29T00:48:21.267Z,27.2
2018-03-29T00:49:10.459Z,27.3
2018-03-29T00:49:59.699Z,27.3
2018-03-29T00:50:50.869Z,27.4
2018-03-29T00:51:41.281Z,27.4
2018-03-29T00:52:30.954Z,27.5
2018-03-29T00:53:21.052Z,27.6
2018-03-29T00:54:11.035Z,27.6
2018-03-29T00:55:01.476Z,27.7
2018-03-29T00:55:51.721Z,27.8
2018-03-29T00:59:11.467Z,27.9
2018-03-29T01:01:41.102Z,27.8
2018-03-29T01:02:31.964Z,27.8
2018-03-29T01:03:21.465Z,27.8
2018-03-29T01:04:11.778Z,27.7
2018-03-29T01:05:02.408Z,27.6
2018-03-29T01:05:52.235Z,27.6
2018-03-29T01:06:42.269Z,27.4
2018-03-29T01:07:32.299Z,27.3
2018-03-29T01:08:22.393Z,27.2
2018-03-29T01:09:12.469Z,27.1
2018-03-29T01:10:02.489Z,26.9
2018-03-29T01:10:52.259Z,26.8
2018-03-29T01:11:41.761Z,26.8
2018-03-29T01:12:32.629Z,26.7
2018-03-29T01:13:22.728Z,26.6
2018-03-29T01:14:12.806Z,26.6
2018-03-29T01:15:02.849Z,26.5
2018-03-29T01:15:52.618Z,26.4
2018-03-29T01:16:42.698Z,26.4
2018-03-29T01:17:33.273Z,26.3
2018-03-29T01:18:22.255Z,26.3
2018-03-29T01:19:12.653Z,26.4
2018-03-29T01:20:01.903Z,26.4
2018-03-29T01:20:52.914Z,26.5
2018-03-29T01:21:43.004Z,26.5
2018-03-29T01:22:33.075Z,26.6
2018-03-29T01:23:22.825Z,26.6
2018-03-29T01:24:13.474Z,26.8
2018-03-29T01:25:15.748Z,26.8
2018-03-29T01:25:51.766Z,26.9
2018-03-29T01:26:41.632Z,26.9
2018-03-29T01:27:30.914Z,26.9
2018-03-29T01:28:21.659Z,26.9
2018-03-29T01:29:12.384Z,26.9
2018-03-29T01:30:01.590Z,27
2018-03-29T01:30:52.688Z,26.9
2018-03-29T01:31:42.764Z,26.9
2018-03-29T01:32:33.132Z,26.9
2018-03-29T01:33:21.504Z,26.9
2018-03-29T01:34:11.744Z,26.8
2018-03-29T01:35:02.347Z,26.8
2018-03-29T01:35:52.608Z,26.8
2018-03-29T01:36:42.536Z,26.7
2018-03-29T01:37:32.094Z,26.7
2018-03-29T01:38:23.972Z,26.8
2018-03-29T01:39:12.931Z,26.8
2018-03-29T01:40:02.779Z,26.8
2018-03-29T01:40:53.148Z,26.9
2018-03-29T01:41:42.261Z,26.9
2018-03-29T01:42:33.502Z,27.1
2018-03-29T01:43:22.202Z,27.1
2018-03-29T01:44:13.371Z,27.2
2018-03-29T01:45:03.146Z,27.3
2018-03-29T01:45:53.837Z,27.3
2018-03-29T01:46:44.027Z,27.4
2018-03-29T01:47:34.027Z,27.4
2018-03-29T01:48:23.942Z,27.5
2018-03-29T01:49:14.274Z,27.6
2018-03-29T01:50:04.152Z,27.6
2018-03-29T01:50:54.463Z,27.6
2018-03-29T01:51:43.398Z,27.7
2018-03-29T01:52:33.496Z,27.7
2018-03-29T01:53:24.079Z,27.7
2018-03-29T01:54:15.320Z,27.7
2018-03-29T01:55:03.933Z,27.6
2018-03-29T01:55:55.237Z,27.6
2018-03-29T01:56:44.402Z,27.6
2018-03-29T01:57:35.372Z,27.6
2018-03-29T01:58:24.445Z,27.5
2018-03-29T01:59:14.617Z,27.4
2018-03-29T02:00:04.608Z,27.4
2018-03-29T02:00:54.528Z,27.3
2018-03-29T02:01:44.522Z,27.3
2018-03-29T02:02:34.038Z,27.1
2018-03-29T02:03:24.105Z,26.9
2018-03-29T02:04:13.977Z,26.8
2018-03-29T02:05:03.559Z,26.8
2018-03-29T02:05:55.184Z,26.6
2018-03-29T02:06:44.582Z,26.6
2018-03-29T02:07:35.593Z,26.5
2018-03-29T02:08:25.103Z,26.4
2018-03-29T02:09:16.140Z,26.4
2018-03-29T02:10:05.065Z,26.3
2018-03-29T02:10:56.003Z,26.3
2018-03-29T02:11:45.681Z,26.3
2018-03-29T02:12:34.455Z,26.3
2018-03-29T02:13:25.780Z,26.3
2018-03-29T02:14:16.579Z,26.4
2018-03-29T02:15:05.325Z,26.4
2018-03-29T02:15:55.976Z,26.5
2018-03-29T02:16:46.157Z,26.5
2018-03-29T02:17:35.809Z,26.6
2018-03-29T02:18:26.507Z,26.7
2018-03-29T02:19:16.204Z,26.8
2018-03-29T02:20:06.067Z,26.8
2018-03-29T02:20:56.009Z,26.9
2018-03-29T02:21:45.394Z,27
2018-03-29T02:22:35.639Z,27.1
2018-03-29T02:23:26.226Z,27.1
2018-03-29T02:24:16.047Z,27.3
2018-03-29T02:25:07.374Z,27.3
2018-03-29T02:25:55.983Z,27.3
2018-03-29T02:26:46.689Z,27.4
2018-03-29T02:27:36.850Z,27.5
2018-03-29T02:28:26.358Z,27.5
2018-03-29T02:29:15.979Z,27.6
2018-03-29T02:30:05.577Z,27.6
2018-03-29T02:30:56.884Z,27.7
2018-03-29T02:31:46.109Z,27.8
2018-03-29T02:32:37.195Z,27.8
2018-03-29T02:35:57.984Z,27.8
2018-03-29T02:36:46.589Z,27.8
2018-03-29T02:37:37.598Z,27.8
2018-03-29T02:38:27.619Z,27.7
2018-03-29T02:39:17.609Z,27.7
2018-03-29T02:40:07.497Z,27.6
2018-03-29T02:40:57.118Z,27.6
2018-03-29T02:41:47.404Z,27.4
2018-03-29T02:42:37.132Z,27.4
2018-03-29T02:43:28.236Z,27.3
2018-03-29T02:44:17.085Z,27.1
2018-03-29T02:45:07.404Z,27
2018-03-29T02:45:58.036Z,26.9
2018-03-29T02:46:47.518Z,26.8
2018-03-29T02:47:38.161Z,26.7
2018-03-29T02:48:27.605Z,26.6
2018-03-29T02:49:17.906Z,26.6
2018-03-29T02:50:08.356Z,26.4
2018-03-29T02:50:58.821Z,26.4
2018-03-29T02:51:47.806Z,26.4
2018-03-29T02:52:39.004Z,26.3
2018-03-29T02:53:28.069Z,26.3
2018-03-29T02:54:18.544Z,26.3
2018-03-29T02:55:08.917Z,26.3
2018-03-29T02:55:58.362Z,26.4
2018-03-29T02:56:48.368Z,26.4
2018-03-29T02:57:39.131Z,26.5
2018-03-29T02:58:29.056Z,26.6
2018-03-29T02:59:18.493Z,26.6
2018-03-29T03:00:08.299Z,26.8
2018-03-29T03:00:58.134Z,26.8
2018-03-29T03:01:49.453Z,26.9
2018-03-29T03:02:39.547Z,26.9
2018-03-29T03:03:29.757Z,27.1
2018-03-29T03:04:18.667Z,27.1
2018-03-29T03:05:08.520Z,27.2
2018-03-29T03:05:59.784Z,27.3
2018-03-29T03:06:48.835Z,27.3
2018-03-29T03:07:39.865Z,27.4
2018-03-29T03:08:29.915Z,27.5
2018-03-29T03:09:18.843Z,27.6
2018-03-29T03:10:09.143Z,27.6
2018-03-29T03:10:59.974Z,27.6
2018-03-29T03:11:49.582Z,27.6
2018-03-29T03:12:40.011Z,27.8
2018-03-29T03:13:30.672Z,27.8
2018-03-29T03:15:09.810Z,27.9
2018-03-29T03:15:58.859Z,27.9
2018-03-29T03:16:50.193Z,27.9
2018-03-29T03:17:40.377Z,28
2018-03-29T03:18:30.416Z,27.9
2018-03-29T03:19:20.241Z,28
2018-03-29T03:20:09.651Z,28
2018-03-29T03:21:00.100Z,27.9
2018-03-29T03:21:50.098Z,27.9
2018-03-29T03:24:20.008Z,27.8
2018-03-29T03:25:11.502Z,27.7
2018-03-29T03:26:00.727Z,27.6
2018-03-29T03:26:50.482Z,27.6
2018-03-29T03:27:40.529Z,27.4
2018-03-29T03:28:30.051Z,27.3
2018-03-29T03:29:20.476Z,27.1
2018-03-29T03:30:11.255Z,27.1
2018-03-29T03:31:00.483Z,26.9
2018-03-29T03:31:51.872Z,26.8
2018-03-29T03:32:40.817Z,26.8
2018-03-29T03:33:31.668Z,26.6
2018-03-29T03:34:21.628Z,26.6
2018-03-29T03:35:11.478Z,26.5
2018-03-29T03:36:00.975Z,26.4
2018-03-29T03:36:51.225Z,26.4
2018-03-29T03:37:41.590Z,26.4
2018-03-29T03:38:32.300Z,26.3
2018-03-29T03:39:21.604Z,26.4
2018-03-29T03:40:10.275Z,26.4
2018-03-29T03:41:02.030Z,26.5
2018-03-29T03:41:51.380Z,26.6
2018-03-29T03:42:41.443Z,26.6
2018-03-29T03:43:31.872Z,26.7
2018-03-29T03:44:21.330Z,26.8
2018-03-29T03:45:12.429Z,26.8
2018-03-29T03:46:01.099Z,26.9
2018-03-29T03:46:53.679Z,26.9
2018-03-29T03:47:43.163Z,27
2018-03-29T03:48:32.942Z,27.1
2018-03-29T03:49:23.275Z,27.2
2018-03-29T03:50:13.662Z,27.3
2018-03-29T03:51:03.707Z,27.3
2018-03-29T03:51:53.526Z,27.4
2018-03-29T03:52:43.818Z,27.4
2018-03-29T03:53:33.857Z,27.5
2018-03-29T03:54:23.703Z,27.6
2018-03-29T03:55:13.997Z,27.6
2018-03-29T03:56:04.019Z,27.6
2018-03-29T03:56:53.789Z,27.7
2018-03-29T03:57:44.136Z,27.8
2018-03-29T04:00:14.583Z,27.9
2018-03-29T04:01:03.271Z,27.9
2018-03-29T04:01:54.466Z,27.9
2018-03-29T04:02:44.524Z,28
2018-03-29T04:03:34.545Z,28
2018-03-29T04:04:24.665Z,28.1
2018-03-29T04:05:14.665Z,28.1
2018-03-29T04:06:04.705Z,28.1
2018-03-29T04:06:53.953Z,28.1
2018-03-29T04:07:44.882Z,28.1
2018-03-29T04:08:34.888Z,28.2
2018-03-29T04:09:24.098Z,28.3
2018-03-29T04:10:15.098Z,28.3
2018-03-29T04:11:05.089Z,28.3
2018-03-29T04:11:54.826Z,28.3
2018-03-29T04:12:44.417Z,28.3
2018-03-29T04:13:35.264Z,28.3
2018-03-29T04:14:24.773Z,28.3
2018-03-29T04:15:15.108Z,28.2
2018-03-29T04:16:05.445Z,28.1
2018-03-29T04:16:54.946Z,28.1
2018-03-29T04:17:45.789Z,28
2018-03-29T04:18:35.357Z,27.9
2018-03-29T04:19:25.394Z,27.9
2018-03-29T04:20:15.437Z,27.9
2018-03-29T04:21:56.142Z,27.8
2018-03-29T04:22:44.669Z,27.7
2018-03-29T04:23:34.984Z,27.6
2018-03-29T04:24:25.403Z,27.5
2018-03-29T04:25:16.076Z,27.4
2018-03-29T04:26:06.417Z,27.3
2018-03-29T04:26:56.441Z,27.2
2018-03-29T04:27:46.518Z,27.1
2018-03-29T04:28:36.304Z,27
2018-03-29T04:29:25.793Z,26.9
2018-03-29T04:30:16.142Z,26.9
2018-03-29T04:31:04.510Z,26.8
2018-03-29T04:31:56.480Z,26.8
2018-03-29T04:32:45.363Z,26.7
2018-03-29T04:33:35.065Z,26.7
2018-03-29T04:34:26.046Z,26.7
2018-03-29T04:35:15.277Z,26.8
2018-03-29T04:36:05.214Z,26.9
2018-03-29T04:36:56.158Z,26.9
2018-03-29T04:37:44.961Z,26.9
2018-03-29T04:38:35.502Z,26.9
2018-03-29T04:39:25.328Z,26.9
2018-03-29T04:40:16.680Z,27.1
2018-03-29T04:41:06.486Z,27.1
2018-03-29T04:41:55.933Z,27.1
2018-03-29T04:42:46.208Z,27.1
2018-03-29T04:43:36.237Z,27.1
2018-03-29T04:44:26.005Z,27.1
2018-03-29T04:45:15.748Z,27.1
2018-03-29T04:46:06.190Z,27.1
2018-03-29T04:46:56.309Z,27
2018-03-29T04:47:46.435Z,26.9
2018-03-29T04:48:35.492Z,26.9
2018-03-29T04:49:26.573Z,26.9
2018-03-29T04:50:17.265Z,26.8
2018-03-29T04:51:05.599Z,26.8
2018-03-29T04:51:55.825Z,26.7
2018-03-29T04:52:46.594Z,26.6
2018-03-29T04:53:37.606Z,26.6
2018-03-29T04:54:27.634Z,26.6
2018-03-29T04:55:16.781Z,26.6
2018-03-29T04:56:06.210Z,26.7
2018-03-29T04:56:57.587Z,26.8
2018-03-29T04:57:45.860Z,26.8
2018-03-29T04:58:37.201Z,26.9
2018-03-29T04:59:26.363Z,27
2018-03-29T05:00:16.305Z,27.1
2018-03-29T05:01:07.184Z,27.1
2018-03-29T05:01:57.213Z,27.2
2018-03-29T05:02:47.471Z,27.3
2018-03-29T05:03:36.338Z,27.3
2018-03-29T05:04:28.564Z,27.4
2018-03-29T05:05:17.262Z,27.4
2018-03-29T05:06:07.411Z,27.5
2018-03-29T05:06:58.564Z,27.5
2018-03-29T05:07:47.165Z,27.6
2018-03-29T05:08:37.404Z,27.6
2018-03-29T05:09:27.581Z,27.7
2018-03-29T05:10:18.786Z,27.8
2018-03-29T05:11:08.101Z,27.8
2018-03-29T05:11:58.126Z,27.7
2018-03-29T05:12:47.213Z,27.7
2018-03-29T05:13:38.091Z,27.6
2018-03-29T05:14:27.589Z,27.6
2018-03-29T05:15:17.363Z,27.6
2018-03-29T05:16:08.686Z,27.6
2018-03-29T05:16:58.691Z,27.6
2018-03-29T05:17:48.773Z,27.5
2018-03-29T05:18:38.676Z,27.4
2018-03-29T05:19:27.745Z,27.4
2018-03-29T05:20:19.348Z,27.4
2018-03-29T05:21:08.621Z,27.4
2018-03-29T05:21:58.744Z,27.3
2018-03-29T05:22:48.709Z,27.2
2018-03-29T05:23:38.378Z,27.1
2018-03-29T05:24:28.903Z,27
2018-03-29T05:25:19.445Z,26.9
2018-03-29T05:26:08.526Z,26.8
2018-03-29T05:26:58.442Z,26.8
2018-03-29T05:27:48.740Z,26.7
2018-03-29T05:28:38.474Z,26.6
2018-03-29T05:29:29.028Z,26.6
2018-03-29T05:30:18.214Z,26.4
2018-03-29T05:31:09.360Z,26.5
2018-03-29T05:31:59.329Z,26.5
2018-03-29T05:32:48.193Z,26.6
2018-03-29T05:33:39.512Z,26.6
2018-03-29T05:34:29.539Z,26.6
2018-03-29T05:35:19.441Z,26.7
2018-03-29T05:36:09.195Z,26.8
2018-03-29T05:36:59.547Z,26.8
2018-03-29T05:37:50.269Z,26.9
2018-03-29T05:38:40.512Z,26.9
2018-03-29T05:39:29.525Z,27.1
2018-03-29T05:40:20.292Z,27.1
2018-03-29T05:41:11.067Z,27.2
2018-03-29T05:42:01.429Z,27.3
2018-03-29T05:42:51.492Z,27.3
2018-03-29T05:43:41.599Z,27.4
2018-03-29T05:44:31.294Z,27.4
2018-03-29T05:45:21.946Z,27.5
2018-03-29T05:46:11.111Z,27.6
2018-03-29T05:47:01.260Z,27.6
2018-03-29T05:47:51.867Z,27.7
2018-03-29T05:48:41.861Z,27.7
2018-03-29T05:49:31.939Z,27.8
2018-03-29T05:50:22.280Z,27.8
2018-03-29T05:51:12.113Z,27.8
2018-03-29T05:52:02.122Z,27.7
2018-03-29T05:52:52.150Z,27.7
2018-03-29T05:53:42.273Z,27.6
2018-03-29T05:54:32.566Z,27.6
2018-03-29T05:55:21.829Z,27.6
2018-03-29T05:56:11.255Z,27.6
2018-03-29T05:57:02.774Z,27.6
2018-03-29T05:57:52.227Z,27.5
2018-03-29T05:58:42.029Z,27.4
2018-03-29T05:59:32.240Z,27.4
2018-03-29T06:00:20.778Z,27.4
2018-03-29T06:01:11.829Z,27.3
2018-03-29T06:02:01.534Z,27.2
2018-03-29T06:02:52.343Z,27.1
2018-03-29T06:03:40.966Z,26.9
2018-03-29T06:04:32.668Z,26.9
2018-03-29T06:05:21.265Z,26.8
2018-03-29T06:06:11.127Z,26.7
2018-03-29T06:07:01.566Z,26.6
2018-03-29T06:07:51.637Z,26.5
2018-03-29T06:08:41.956Z,26.4
2018-03-29T06:09:31.635Z,26.4
2018-03-29T06:10:21.339Z,26.4
2018-03-29T06:11:11.460Z,26.4
2018-03-29T06:12:01.750Z,26.5
2018-03-29T06:12:52.068Z,26.6
2018-03-29T06:13:42.015Z,26.6
2018-03-29T06:14:32.191Z,26.6
2018-03-29T06:15:22.052Z,26.7
2018-03-29T06:16:11.729Z,26.8
2018-03-29T06:17:02.203Z,26.8
2018-03-29T06:17:52.848Z,26.9
2018-03-29T06:18:42.185Z,27
2018-03-29T06:19:32.047Z,27.1
2018-03-29T06:20:22.896Z,27.1
2018-03-29T06:21:12.753Z,27.2
2018-03-29T06:22:02.921Z,27.3
2018-03-29T06:22:53.445Z,27.3
2018-03-29T06:23:43.148Z,27.4
2018-03-29T06:24:32.987Z,27.4
2018-03-29T06:25:23.555Z,27.5
2018-03-29T06:26:12.215Z,27.6
2018-03-29T06:27:03.458Z,27.6
2018-03-29T06:27:53.611Z,27.6
2018-03-29T06:28:43.765Z,27.6
2018-03-29T06:29:33.323Z,27.5
2018-03-29T06:30:23.761Z,27.5
2018-03-29T06:31:13.926Z,27.4
2018-03-29T06:32:03.444Z,27.4
2018-03-29T06:32:53.449Z,27.4
2018-03-29T06:33:43.396Z,27.4
2018-03-29T06:34:34.083Z,27.3
2018-03-29T06:35:24.293Z,27.3
2018-03-29T06:36:13.881Z,27.3
2018-03-29T06:37:04.706Z,27.3
2018-03-29T06:37:54.223Z,27.2
2018-03-29T06:38:44.766Z,27.1
2018-03-29T06:39:33.919Z,27
2018-03-29T06:40:24.219Z,26.9
2018-03-29T06:41:15.067Z,26.8
2018-03-29T06:42:04.286Z,26.7
2018-03-29T06:42:54.534Z,26.6
2018-03-29T06:43:45.805Z,26.5
2018-03-29T06:44:35.601Z,26.4
2018-03-29T06:45:24.529Z,26.3
2018-03-29T06:46:14.816Z,26.3
2018-03-29T06:47:05.933Z,26.2
2018-03-29T06:47:54.938Z,26.3
2018-03-29T06:48:44.878Z,26.3
2018-03-29T06:49:34.064Z,26.3
2018-03-29T06:50:24.603Z,26.3
2018-03-29T06:51:14.748Z,26.4
2018-03-29T06:52:06.088Z,26.4
2018-03-29T06:52:55.458Z,26.5
2018-03-29T06:53:45.314Z,26.6
2018-03-29T06:54:34.282Z,26.6
2018-03-29T06:55:26.183Z,26.7
2018-03-29T06:56:14.623Z,26.8
2018-03-29T06:57:04.748Z,26.9
2018-03-29T06:57:55.530Z,26.9
2018-03-29T06:58:46.350Z,27
2018-03-29T06:59:36.138Z,27.1
2018-03-29T07:00:26.105Z,27.1
2018-03-29T07:01:15.578Z,27.2
2018-03-29T07:02:04.967Z,27.3
2018-03-29T07:02:55.285Z,27.3
2018-03-29T07:03:45.953Z,27.3
2018-03-29T07:04:35.425Z,27.3
2018-03-29T07:05:25.823Z,27.3
2018-03-29T07:06:15.778Z,27.3
2018-03-29T07:07:06.036Z,27.3
2018-03-29T07:07:56.560Z,27.3
2018-03-29T07:08:46.107Z,27.2
2018-03-29T07:09:36.645Z,27.2
2018-03-29T07:10:25.649Z,27.1
2018-03-29T07:11:16.330Z,27.1
2018-03-29T07:12:07.310Z,27.1
2018-03-29T07:12:57.578Z,27
2018-03-29T07:13:45.939Z,27
2018-03-29T07:14:35.899Z,27
2018-03-29T07:15:25.809Z,26.9
2018-03-29T07:16:16.504Z,26.8
2018-03-29T07:17:07.214Z,26.7
2018-03-29T07:17:56.820Z,26.6
2018-03-29T07:18:47.676Z,26.5
2018-03-29T07:19:36.564Z,26.4
2018-03-29T07:20:25.865Z,26.3
2018-03-29T07:21:16.925Z,26.3
2018-03-29T07:22:07.374Z,26.1
2018-03-29T07:22:57.809Z,26
2018-03-29T07:23:47.053Z,26
2018-03-29T07:24:37.606Z,26
2018-03-29T07:25:27.556Z,26.1
2018-03-29T07:26:17.989Z,26.1
2018-03-29T07:27:07.889Z,26.1
2018-03-29T07:27:55.987Z,26.2
2018-03-29T07:28:48.398Z,26.3
2018-03-29T07:29:37.528Z,26.3
2018-03-29T07:30:27.758Z,26.4
2018-03-29T07:31:18.441Z,26.5
2018-03-29T07:32:08.052Z,26.6
2018-03-29T07:32:58.390Z,26.6
2018-03-29T07:33:46.311Z,26.8
2018-03-29T07:34:37.825Z,26.8
2018-03-29T07:35:28.127Z,26.9
2018-03-29T07:36:18.135Z,26.9
2018-03-29T07:37:07.761Z,27
2018-03-29T07:37:58.544Z,27.1
2018-03-29T07:38:48.914Z,27.1
2018-03-29T07:39:38.416Z,27.1
2018-03-29T07:40:29.224Z,27.1
2018-03-29T07:41:18.427Z,27.1
2018-03-29T07:42:07.569Z,27.1
2018-03-29T07:42:59.781Z,27.1
2018-03-29T07:43:48.780Z,27
2018-03-29T07:44:36.920Z,27
2018-03-29T07:45:29.245Z,26.9
2018-03-29T07:46:18.483Z,26.9
2018-03-29T07:47:09.982Z,26.8
2018-03-29T07:47:58.757Z,26.8
2018-03-29T07:48:49.822Z,26.7
2018-03-29T07:49:40.043Z,26.7
2018-03-29T07:50:29.282Z,26.6
2018-03-29T07:51:19.724Z,26.6
2018-03-29T07:52:09.571Z,26.5
2018-03-29T07:52:58.362Z,26.4
2018-03-29T07:53:49.889Z,26.3
2018-03-29T07:54:38.502Z,26.2
2018-03-29T07:55:30.625Z,26.1
2018-03-29T07:56:19.787Z,26
2018-03-29T07:57:09.686Z,25.9
2018-03-29T07:57:59.122Z,25.8
2018-03-29T07:58:49.704Z,25.8
2018-03-29T07:59:40.032Z,25.8
2018-03-29T08:00:30.230Z,25.8
2018-03-29T08:01:20.164Z,25.9
2018-03-29T08:02:10.046Z,25.9
2018-03-29T08:02:59.323Z,25.9
2018-03-29T08:03:49.933Z,26
2018-03-29T08:04:40.157Z,26.1
2018-03-29T08:05:30.829Z,26.2
2018-03-29T08:06:20.814Z,26.3
2018-03-29T08:07:09.794Z,26.3
2018-03-29T08:07:59.960Z,26.4
2018-03-29T08:08:50.616Z,26.4
2018-03-29T08:09:41.109Z,26.6
2018-03-29T08:10:31.127Z,26.6
2018-03-29T08:11:21.161Z,26.7
2018-03-29T08:12:10.935Z,26.8
2018-03-29T08:13:01.001Z,26.8
2018-03-29T08:13:51.211Z,26.8
2018-03-29T08:14:41.444Z,26.8
2018-03-29T08:15:30.997Z,26.8
2018-03-29T08:16:20.266Z,26.7
2018-03-29T08:17:11.829Z,26.7
2018-03-29T08:18:01.308Z,26.7
2018-03-29T08:18:50.522Z,26.6
2018-03-29T08:19:41.314Z,26.6
2018-03-29T08:20:30.576Z,26.6
2018-03-29T08:21:21.705Z,26.6
2018-03-29T08:22:11.646Z,26.5
2018-03-29T08:23:01.254Z,26.4
2018-03-29T08:23:51.436Z,26.4
2018-03-29T08:24:40.963Z,26.3
2018-03-29T08:25:32.032Z,26.2
2018-03-29T08:26:21.691Z,26.1
2018-03-29T08:27:11.380Z,26
2018-03-29T08:28:01.636Z,25.9
2018-03-29T08:28:52.488Z,25.9
2018-03-29T08:29:42.048Z,25.8
2018-03-29T08:30:32.283Z,25.7
2018-03-29T08:31:21.952Z,25.6
2018-03-29T08:32:12.116Z,25.6
2018-03-29T08:33:01.397Z,25.5
2018-03-29T08:33:51.753Z,25.4
2018-03-29T08:34:42.507Z,25.4
2018-03-29T08:35:32.398Z,25.3
2018-03-29T08:36:22.221Z,25.2
2018-03-29T08:37:12.824Z,25.3
2018-03-29T08:38:02.840Z,25.3
2018-03-29T08:38:51.582Z,25.4
2018-03-29T08:39:41.688Z,25.4
2018-03-29T08:40:32.527Z,25.4
2018-03-29T08:41:22.695Z,25.5
2018-03-29T08:42:11.308Z,25.6
2018-03-29T08:43:02.114Z,25.7
2018-03-29T08:43:52.602Z,25.8
2018-03-29T08:44:44.049Z,25.9
2018-03-29T08:45:32.579Z,26
2018-03-29T08:46:21.884Z,26.1
2018-03-29T08:47:11.729Z,26.2
2018-03-29T08:48:03.013Z,26.3
2018-03-29T08:48:53.675Z,26.4
2018-03-29T08:49:43.366Z,26.4
2018-03-29T08:50:32.853Z,26.5
2018-03-29T08:51:24.076Z,26.5
2018-03-29T08:52:13.513Z,26.5
2018-03-29T08:53:04.220Z,26.5
2018-03-29T08:53:54.188Z,26.5
2018-03-29T08:54:43.872Z,26.5
2018-03-29T08:55:34.395Z,26.5
2018-03-29T08:56:24.147Z,26.5
2018-03-29T08:57:14.251Z,26.5
2018-03-29T08:58:04.425Z,26.4
2018-03-29T08:58:53.287Z,26.4
2018-03-29T08:59:43.868Z,26.4
2018-03-29T09:00:34.375Z,26.3
2018-03-29T09:01:24.828Z,26.3
2018-03-29T09:02:14.205Z,26.2
2018-03-29T09:03:04.808Z,26.1
2018-03-29T09:03:53.970Z,26
2018-03-29T09:04:45.185Z,25.9
2018-03-29T09:05:35.527Z,25.9
2018-03-29T09:06:24.605Z,25.8
2018-03-29T09:07:16.107Z,25.7
2018-03-29T09:08:04.645Z,25.6
2018-03-29T09:08:55.565Z,25.6
2018-03-29T09:09:44.654Z,25.5
2018-03-29T09:10:34.941Z,25.5
2018-03-29T09:11:25.580Z,25.4
2018-03-29T09:12:14.579Z,25.3
2018-03-29T09:13:05.709Z,25.2
2018-03-29T09:13:54.684Z,25.1
2018-03-29T09:14:44.626Z,25.1
2018-03-29T09:15:34.709Z,25.1
2018-03-29T09:16:25.356Z,25.2
2018-03-29T09:17:14.217Z,25.3
2018-03-29T09:18:04.655Z,25.3
2018-03-29T09:18:54.710Z,25.3
2018-03-29T09:19:44.993Z,25.4
2018-03-29T09:20:35.071Z,25.6
2018-03-29T09:21:25.828Z,25.7
2018-03-29T09:22:16.073Z,25.8
2018-03-29T09:23:06.120Z,25.9
2018-03-29T09:23:55.481Z,26
2018-03-29T09:24:45.627Z,26.1
2018-03-29T09:25:36.440Z,26.2
2018-03-29T09:26:25.755Z,26.3
2018-03-29T09:27:15.461Z,26.3
2018-03-29T09:28:06.854Z,26.4
2018-03-29T09:28:56.129Z,26.4
2018-03-29T09:29:45.630Z,26.4
2018-03-29T09:30:36.642Z,26.4
2018-03-29T09:31:26.230Z,26.4
2018-03-29T09:32:15.793Z,26.4
2018-03-29T09:33:05.673Z,26.3
2018-03-29T09:33:55.518Z,26.3
2018-03-29T09:34:46.477Z,26.3
2018-03-29T09:35:36.288Z,26.2
2018-03-29T09:36:26.612Z,26.2
2018-03-29T09:37:16.974Z,26.1
2018-03-29T09:38:08.194Z,26.1
2018-03-29T09:38:57.199Z,26
2018-03-29T09:39:47.247Z,25.9
2018-03-29T09:40:36.935Z,25.9
2018-03-29T09:41:27.741Z,25.8
2018-03-29T09:42:17.502Z,25.8
2018-03-29T09:43:08.438Z,25.7
2018-03-29T09:43:58.122Z,25.6
2018-03-29T09:44:47.015Z,25.6
2018-03-29T09:45:37.482Z,25.5
2018-03-29T09:46:28.149Z,25.4
2018-03-29T09:47:17.857Z,25.4
2018-03-29T09:48:07.383Z,25.3
2018-03-29T09:48:58.040Z,25.3
2018-03-29T09:49:48.144Z,25.1
2018-03-29T09:50:38.546Z,25.1
2018-03-29T09:51:28.245Z,25.1
2018-03-29T09:52:18.242Z,25.2
2018-03-29T09:53:07.893Z,25.3
2018-03-29T09:53:58.491Z,25.3
2018-03-29T09:54:47.734Z,25.3
2018-03-29T09:55:38.529Z,25.4
2018-03-29T09:56:28.411Z,25.4
2018-03-29T09:57:18.456Z,25.6
2018-03-29T09:58:07.964Z,25.6
2018-03-29T09:58:58.357Z,25.8
2018-03-29T09:59:48.554Z,25.9
2018-03-29T10:00:38.191Z,26
2018-03-29T10:01:29.046Z,26.1
2018-03-29T10:02:18.646Z,26.2
2018-03-29T10:03:08.937Z,26.2
2018-03-29T10:03:59.804Z,26.3
2018-03-29T10:04:49.164Z,26.3
2018-03-29T10:05:39.105Z,26.3
2018-03-29T10:06:29.263Z,26.3
2018-03-29T10:07:18.271Z,26.3
2018-03-29T10:08:07.261Z,26.3
2018-03-29T10:08:59.505Z,26.3
2018-03-29T10:09:48.889Z,26.3
2018-03-29T10:10:38.523Z,26.2
2018-03-29T10:11:28.799Z,26.2
2018-03-29T10:12:17.070Z,26.2
2018-03-29T10:13:09.293Z,26.1
2018-03-29T10:14:00.025Z,26.1
2018-03-29T10:14:49.840Z,26.1
2018-03-29T10:15:40.116Z,26
2018-03-29T10:16:28.876Z,25.9
2018-03-29T10:17:19.706Z,25.8
2018-03-29T10:18:09.343Z,25.7
2018-03-29T10:18:59.596Z,25.6
2018-03-29T10:19:48.898Z,25.5
2018-03-29T10:20:39.054Z,25.4
2018-03-29T10:21:29.928Z,25.4
2018-03-29T10:22:19.532Z,25.3
2018-03-29T10:23:09.176Z,25.2
2018-03-29T10:24:00.105Z,25.1
2018-03-29T10:24:49.385Z,25
2018-03-29T10:25:39.853Z,24.9
2018-03-29T10:26:29.970Z,24.9
2018-03-29T10:27:20.350Z,25
2018-03-29T10:28:10.672Z,25.1
2018-03-29T10:29:00.352Z,25.1
2018-03-29T10:29:49.625Z,25.2
2018-03-29T10:30:39.387Z,25.3
2018-03-29T10:31:30.648Z,25.3
2018-03-29T10:32:19.934Z,25.4
2018-03-29T10:33:10.883Z,25.5
2018-03-29T10:34:00.778Z,25.6
2018-03-29T10:34:50.688Z,25.8
2018-03-29T10:35:41.096Z,25.8
2018-03-29T10:36:30.540Z,25.9
2018-03-29T10:37:21.288Z,26.1
2018-03-29T10:38:11.439Z,26.1
2018-03-29T10:39:00.713Z,26.2
2018-03-29T10:39:51.427Z,26.2
2018-03-29T10:40:41.342Z,26.3
2018-03-29T10:41:31.694Z,26.3
2018-03-29T10:42:21.279Z,26.3
2018-03-29T10:43:11.725Z,26.3
2018-03-29T10:44:02.479Z,26.3
2018-03-29T10:44:51.802Z,26.3
2018-03-29T10:45:41.291Z,26.3
2018-03-29T10:46:32.168Z,26.2
2018-03-29T10:47:21.737Z,26.2
2018-03-29T10:48:10.916Z,26.2
2018-03-29T10:49:01.714Z,26.1
2018-03-29T10:49:51.826Z,26.1
2018-03-29T10:50:42.445Z,26.1
2018-03-29T10:51:31.881Z,25.9
2018-03-29T10:52:21.985Z,25.9
2018-03-29T10:53:12.235Z,25.8
2018-03-29T10:54:01.500Z,25.8
2018-03-29T10:54:51.976Z,25.6
2018-03-29T10:55:42.236Z,25.6
2018-03-29T10:56:32.090Z,25.5
2018-03-29T10:57:21.478Z,25.4
2018-03-29T10:58:13.106Z,25.4
2018-03-29T10:59:02.640Z,25.3
2018-03-29T10:59:52.140Z,25.3
2018-03-29T11:00:42.291Z,25.1
2018-03-29T11:01:32.855Z,25.1
2018-03-29T11:02:22.300Z,25.1
2018-03-29T11:03:13.786Z,25.2
2018-03-29T11:04:03.621Z,25.3
2018-03-29T11:04:52.217Z,25.3
2018-03-29T11:05:42.985Z,25.3
2018-03-29T11:06:32.116Z,25.4
2018-03-29T11:07:22.687Z,25.4
2018-03-29T11:08:12.250Z,25.6
2018-03-29T11:09:04.197Z,25.7
2018-03-29T11:09:53.394Z,25.8
2018-03-29T11:10:42.243Z,25.9
2018-03-29T11:11:33.388Z,26
2018-03-29T11:12:23.927Z,26.1
2018-03-29T11:13:13.337Z,26.1
2018-03-29T11:14:03.927Z,26.2
2018-03-29T11:14:53.844Z,26.3
2018-03-29T11:15:43.207Z,26.3
2018-03-29T11:16:33.910Z,26.3
2018-03-29T11:17:23.797Z,26.3
2018-03-29T11:18:13.496Z,26.3
2018-03-29T11:19:03.947Z,26.3
2018-03-29T11:19:53.024Z,26.3
2018-03-29T11:20:44.023Z,26.3